createdAt,value
2022-12-29T00:02:20.364Z,74.20
2022-12-29T00:04:47.165Z,73.90
2022-12-29T00:07:13.887Z,74.90
2022-12-29T00:09:40.675Z,74.00
2022-12-29T00:12:07.501Z,73.70
2022-12-29T00:14:52.584Z,73.70
2022-12-29T00:17:19.324Z,73.90
2022-12-29T00:20:04.701Z,73.90
2022-12-29T00:22:49.969Z,74.00
2022-12-29T00:25:35.356Z,74.00
2022-12-29T00:28:20.786Z,74.00
2022-12-29T00:31:06.040Z,73.70
2022-12-29T00:33:52.207Z,73.90
2022-12-29T00:36:29.403Z,73.90
2022-12-29T00:39:17.715Z,73.90
2022-12-29T00:42:03.321Z,74.00
2022-12-29T00:44:30.204Z,74.00
2022-12-29T00:46:57.079Z,73.90
2022-12-29T00:49:32.755Z,74.20
2022-12-29T00:52:00.713Z,74.00
2022-12-29T00:54:28.775Z,73.80
2022-12-29T00:56:55.549Z,74.00
2022-12-29T00:59:22.454Z,74.20
2022-12-29T01:01:49.305Z,73.90
2022-12-29T01:04:16.181Z,73.70
2022-12-29T01:06:45.181Z,73.50
2022-12-29T01:09:30.352Z,74.00
2022-12-29T01:11:57.192Z,74.10
2022-12-29T01:14:24.061Z,74.20
2022-12-29T01:16:51.115Z,73.70
2022-12-29T01:19:18.273Z,74.00
2022-12-29T01:21:45.583Z,74.10
2022-12-29T01:24:12.343Z,74.20
2022-12-29T01:26:39.147Z,74.40
2022-12-29T01:29:05.924Z,74.10
2022-12-29T01:31:32.842Z,74.10
2022-12-29T01:33:59.700Z,73.90
2022-12-29T01:36:26.417Z,74.30
2022-12-29T01:38:53.226Z,74.40
2022-12-29T01:41:19.999Z,74.10
2022-12-29T01:43:58.045Z,74.20
2022-12-29T01:46:38.698Z,74.00
2022-12-29T01:49:20.048Z,73.90
2022-12-29T01:51:48.715Z,73.80
2022-12-29T01:54:23.371Z,74.00
2022-12-29T01:56:51.413Z,74.00
2022-12-29T01:59:20.334Z,74.00
2022-12-29T02:01:47.192Z,73.90
2022-12-29T02:04:14.169Z,73.90
2022-12-29T02:06:53.677Z,73.80
2022-12-29T02:09:20.545Z,73.90
2022-12-29T02:11:47.289Z,73.80
2022-12-29T02:14:14.573Z,73.80
2022-12-29T02:17:15.464Z,74.50
2022-12-29T02:20:12.766Z,73.80
2022-12-29T02:23:16.447Z,73.70
2022-12-29T02:25:50.126Z,73.90
2022-12-29T02:28:54.474Z,73.60
2022-12-29T02:31:30.127Z,73.70
2022-12-29T02:34:22.620Z,73.50
2022-12-29T02:37:06.511Z,73.40
2022-12-29T02:39:39.866Z,73.20
2022-12-29T02:42:24.972Z,73.20
2022-12-29T02:45:07.174Z,73.50
2022-12-29T02:47:51.150Z,73.30
2022-12-29T02:50:28.321Z,73.30
2022-12-29T02:53:03.540Z,73.30
2022-12-29T02:55:30.329Z,73.10
2022-12-29T02:58:23.638Z,73.00
2022-12-29T03:01:14.249Z,73.10
2022-12-29T03:04:07.121Z,72.90
2022-12-29T03:07:12.175Z,72.90
2022-12-29T03:09:43.930Z,73.00
2022-12-29T03:12:23.435Z,73.00
2022-12-29T03:15:11.680Z,72.90
2022-12-29T03:17:46.667Z,73.10
2022-12-29T03:20:20.062Z,73.00
2022-12-29T03:22:48.157Z,73.10
2022-12-29T03:25:30.137Z,72.90
2022-12-29T03:27:58.486Z,73.00
2022-12-29T03:30:25.370Z,72.60
2022-12-29T03:32:54.433Z,72.70
2022-12-29T03:35:23.001Z,72.80
2022-12-29T03:38:01.170Z,72.80
2022-12-29T03:40:28.397Z,72.90
2022-12-29T03:42:55.258Z,72.90
2022-12-29T03:45:22.095Z,72.90
2022-12-29T03:47:48.833Z,72.70
2022-12-29T03:50:15.677Z,72.80
2022-12-29T03:52:42.433Z,72.70
2022-12-29T03:55:09.546Z,72.60
2022-12-29T03:57:36.453Z,72.60
2022-12-29T04:00:05.137Z,72.60
2022-12-29T04:02:32.229Z,72.50
2022-12-29T04:04:59.160Z,72.30
2022-12-29T04:07:25.950Z,72.20
2022-12-29T04:09:52.725Z,72.30
2022-12-29T04:12:19.525Z,72.50
2022-12-29T04:14:46.223Z,72.50
2022-12-29T04:17:12.930Z,72.60
2022-12-29T04:19:39.775Z,72.30
2022-12-29T04:22:06.559Z,72.20
2022-12-29T04:24:34.220Z,72.10
2022-12-29T04:27:00.931Z,72.10
2022-12-29T04:29:27.725Z,72.20
2022-12-29T04:31:54.501Z,72.10
2022-12-29T04:34:21.297Z,72.00
2022-12-29T04:36:48.173Z,72.10
2022-12-29T04:39:14.892Z,71.80
2022-12-29T04:41:41.698Z,71.70
2022-12-29T04:44:08.477Z,71.90
2022-12-29T04:46:35.281Z,71.80
2022-12-29T04:49:05.686Z,71.70
2022-12-29T04:51:32.458Z,71.60
2022-12-29T04:53:59.134Z,71.50
2022-12-29T04:56:25.855Z,71.50
2022-12-29T04:58:52.596Z,71.40
2022-12-29T05:01:19.404Z,71.20
2022-12-29T05:03:46.336Z,71.40
2022-12-29T05:06:13.625Z,71.40
2022-12-29T05:08:40.379Z,71.30
2022-12-29T05:11:07.144Z,71.50
2022-12-29T05:13:34.443Z,71.50
2022-12-29T05:16:01.264Z,71.60
2022-12-29T05:18:28.032Z,71.40
2022-12-29T05:20:57.883Z,71.30
2022-12-29T05:23:24.707Z,71.40
2022-12-29T05:25:51.771Z,71.50
2022-12-29T05:28:18.703Z,71.20
2022-12-29T05:30:45.579Z,71.20
2022-12-29T05:33:12.834Z,71.20
2022-12-29T05:35:39.671Z,71.20
2022-12-29T05:38:06.532Z,71.30
2022-12-29T05:40:34.323Z,70.90
2022-12-29T05:43:01.120Z,70.80
2022-12-29T05:45:27.919Z,70.50
2022-12-29T05:47:54.696Z,70.60
2022-12-29T05:50:21.445Z,71.00
2022-12-29T05:52:48.310Z,70.70
2022-12-29T05:55:15.098Z,70.60
2022-12-29T05:57:41.947Z,70.60
2022-12-29T06:00:09.265Z,70.70
2022-12-29T06:02:36.173Z,70.70
2022-12-29T06:05:03.048Z,70.70
2022-12-29T06:07:29.752Z,70.70
2022-12-29T06:09:56.471Z,70.50
2022-12-29T06:12:23.306Z,70.90
2022-12-29T06:14:50.170Z,70.30
2022-12-29T06:17:16.945Z,70.50
2022-12-29T06:19:44.993Z,70.30
2022-12-29T06:22:13.177Z,70.50
2022-12-29T06:24:40.197Z,70.40
2022-12-29T06:27:06.917Z,70.10
2022-12-29T06:29:34.039Z,70.00
2022-12-29T06:32:00.981Z,70.10
2022-12-29T06:34:27.851Z,70.30
2022-12-29T06:36:54.991Z,70.20
2022-12-29T06:39:21.690Z,70.30
2022-12-29T06:41:48.466Z,70.30
2022-12-29T06:44:15.274Z,71.20
2022-12-29T06:46:41.976Z,70.30
2022-12-29T06:49:08.749Z,70.30
2022-12-29T06:51:35.519Z,70.40
2022-12-29T06:54:02.292Z,70.30
2022-12-29T06:56:29.076Z,70.30
2022-12-29T06:58:55.838Z,70.40
2022-12-29T07:01:22.704Z,70.50
2022-12-29T07:03:50.728Z,70.50
2022-12-29T07:06:17.579Z,70.50
2022-12-29T07:08:44.385Z,70.20
2022-12-29T07:11:11.162Z,70.10
2022-12-29T07:13:38.099Z,70.10
2022-12-29T07:16:11.342Z,70.50
2022-12-29T07:18:38.158Z,70.80
2022-12-29T07:21:05.142Z,70.70
2022-12-29T07:23:32.088Z,70.80
2022-12-29T07:26:03.134Z,70.60
2022-12-29T07:28:30.338Z,70.60
2022-12-29T07:30:57.116Z,70.50
2022-12-29T07:33:23.898Z,70.20
2022-12-29T07:35:50.714Z,70.30
2022-12-29T07:38:17.691Z,70.50
2022-12-29T07:40:44.594Z,70.60
2022-12-29T07:43:11.304Z,70.40
2022-12-29T07:45:38.083Z,70.40
2022-12-29T07:48:08.588Z,70.50
2022-12-29T07:50:36.176Z,70.60
2022-12-29T07:53:04.275Z,70.70
2022-12-29T07:55:31.039Z,70.80
2022-12-29T07:57:57.953Z,70.90
2022-12-29T08:00:24.878Z,71.00
2022-12-29T08:02:51.704Z,71.10
2022-12-29T08:05:18.540Z,71.10
2022-12-29T08:07:45.464Z,71.20
2022-12-29T08:10:12.405Z,71.20
2022-12-29T08:12:39.667Z,71.10
2022-12-29T08:15:07.303Z,71.00
2022-12-29T08:17:34.113Z,71.40
2022-12-29T08:20:00.872Z,71.60
2022-12-29T08:22:27.651Z,71.80
2022-12-29T08:24:54.415Z,72.10
2022-12-29T08:27:21.451Z,72.10
2022-12-29T08:29:50.262Z,71.90
2022-12-29T08:32:17.084Z,72.10
2022-12-29T08:34:43.840Z,72.10
2022-12-29T08:37:10.618Z,71.90
2022-12-29T08:39:37.398Z,72.00
2022-12-29T08:42:04.181Z,72.10
2022-12-29T08:44:31.226Z,72.00
2022-12-29T08:46:57.976Z,72.30
2022-12-29T08:49:24.828Z,72.20
2022-12-29T08:51:51.765Z,72.50
2022-12-29T08:54:18.527Z,72.60
2022-12-29T08:56:46.136Z,72.50
2022-12-29T08:59:12.908Z,72.70
2022-12-29T09:01:41.723Z,73.10
2022-12-29T09:04:17.667Z,72.90
2022-12-29T09:06:45.817Z,72.90
2022-12-29T09:09:13.023Z,73.10
2022-12-29T09:11:39.881Z,72.80
2022-12-29T09:14:06.695Z,72.90
2022-12-29T09:16:33.563Z,73.10
2022-12-29T09:19:00.854Z,73.10
2022-12-29T09:21:27.620Z,73.30
2022-12-29T09:23:54.416Z,73.50
2022-12-29T09:26:21.175Z,73.80
2022-12-29T09:28:48.230Z,73.70
2022-12-29T09:31:15.250Z,74.00
2022-12-29T09:33:42.110Z,74.10
2022-12-29T09:36:09.552Z,73.90
2022-12-29T09:38:36.335Z,74.00
2022-12-29T09:41:28.012Z,74.00
2022-12-29T09:44:06.590Z,73.80
2022-12-29T09:46:35.443Z,74.00
2022-12-29T09:49:25.698Z,74.50
2022-12-29T09:51:54.925Z,74.40
2022-12-29T09:55:02.399Z,74.60
2022-12-29T09:57:36.658Z,74.90
2022-12-29T10:00:28.704Z,74.90
2022-12-29T10:03:07.056Z,74.80
2022-12-29T10:05:40.607Z,74.80
2022-12-29T10:08:34.523Z,74.70
2022-12-29T10:11:19.893Z,74.80
2022-12-29T10:14:04.893Z,74.80
2022-12-29T10:16:37.576Z,74.80
2022-12-29T10:19:16.211Z,74.80
2022-12-29T10:22:04.941Z,74.90
2022-12-29T10:24:31.973Z,75.20
2022-12-29T10:26:58.895Z,75.30
2022-12-29T10:29:34.849Z,75.20
2022-12-29T10:32:22.333Z,75.20
2022-12-29T10:34:51.704Z,75.10
2022-12-29T10:37:18.446Z,75.10
2022-12-29T10:39:48.919Z,75.30
2022-12-29T10:42:37.858Z,75.20
2022-12-29T10:45:05.587Z,75.30
2022-12-29T10:47:38.968Z,75.40
2022-12-29T10:50:06.145Z,75.40
2022-12-29T10:52:32.921Z,75.50
2022-12-29T10:55:03.525Z,75.50
2022-12-29T10:57:30.348Z,75.40
2022-12-29T10:59:57.095Z,75.50
2022-12-29T11:03:02.348Z,75.40
2022-12-29T11:05:32.132Z,75.40
2022-12-29T11:08:02.456Z,75.10
2022-12-29T11:10:39.839Z,75.30
2022-12-29T11:13:33.468Z,75.30
2022-12-29T11:16:04.025Z,75.20
2022-12-29T11:18:38.273Z,75.20
2022-12-29T11:21:07.534Z,75.50
2022-12-29T11:23:39.222Z,75.50
2022-12-29T11:26:11.876Z,75.80
2022-12-29T11:28:39.326Z,75.60
2022-12-29T11:31:07.419Z,75.40
2022-12-29T11:33:38.308Z,75.30
2022-12-29T11:36:09.711Z,75.30
2022-12-29T11:38:38.312Z,75.20
2022-12-29T11:41:05.806Z,75.30
2022-12-29T11:43:38.231Z,75.10
2022-12-29T11:46:05.102Z,74.90
2022-12-29T11:48:39.703Z,75.00
2022-12-29T11:51:06.585Z,74.80
2022-12-29T11:53:39.793Z,75.00
2022-12-29T11:56:09.096Z,75.10
2022-12-29T11:58:37.663Z,74.70
2022-12-29T12:01:06.459Z,74.30
2022-12-29T12:03:33.739Z,74.40
2022-12-29T12:06:02.611Z,74.00
2022-12-29T12:08:49.539Z,73.40
2022-12-29T12:11:21.337Z,73.60
2022-12-29T12:13:50.896Z,73.10
2022-12-29T12:16:22.509Z,73.00
2022-12-29T12:19:25.567Z,72.40
2022-12-29T12:21:56.165Z,72.40
2022-12-29T12:24:39.035Z,71.10
2022-12-29T12:27:21.690Z,71.20
2022-12-29T12:30:15.397Z,71.10
2022-12-29T12:33:06.033Z,71.10
2022-12-29T12:36:07.433Z,70.80
2022-12-29T12:38:55.639Z,71.20
2022-12-29T12:42:08.574Z,71.50
2022-12-29T12:44:47.041Z,71.20
2022-12-29T12:47:16.548Z,71.00
2022-12-29T12:50:00.843Z,70.90
2022-12-29T12:52:50.904Z,71.00
2022-12-29T12:55:36.679Z,70.90
2022-12-29T12:58:25.729Z,70.40
2022-12-29T13:01:18.173Z,70.90
2022-12-29T13:04:18.403Z,71.00
2022-12-29T13:07:16.614Z,70.30
2022-12-29T13:10:21.572Z,70.20
2022-12-29T13:13:26.845Z,70.10
2022-12-29T13:16:19.787Z,69.60
2022-12-29T13:18:54.455Z,69.30
2022-12-29T13:21:42.730Z,71.30
2022-12-29T13:24:24.258Z,71.10
2022-12-29T13:27:24.437Z,71.50
2022-12-29T13:29:54.010Z,71.50
2022-12-29T13:32:43.955Z,71.60
2022-12-29T13:35:34.199Z,71.60
2022-12-29T13:38:02.256Z,71.60
2022-12-29T13:40:35.013Z,71.70
2022-12-29T13:43:02.167Z,72.00
2022-12-29T13:45:30.761Z,71.60
2022-12-29T13:48:11.255Z,71.40
2022-12-29T13:50:39.433Z,72.00
2022-12-29T13:53:19.876Z,72.10
2022-12-29T13:55:50.792Z,72.20
2022-12-29T13:58:47.481Z,72.20
2022-12-29T14:01:32.279Z,72.30
2022-12-29T14:04:00.342Z,72.60
2022-12-29T14:06:35.715Z,73.40
2022-12-29T14:09:04.205Z,72.90
2022-12-29T14:11:38.710Z,72.80
2022-12-29T14:14:22.357Z,72.70
2022-12-29T14:16:49.165Z,73.50
2022-12-29T14:19:20.812Z,72.50
2022-12-29T14:22:00.421Z,72.60
2022-12-29T14:24:29.561Z,72.90
2022-12-29T14:26:56.324Z,72.70
2022-12-29T14:29:25.945Z,72.00
2022-12-29T14:31:53.344Z,71.90
2022-12-29T14:34:23.230Z,71.30
2022-12-29T14:37:00.853Z,71.00
2022-12-29T14:39:39.247Z,70.60
2022-12-29T14:42:14.321Z,70.80
2022-12-29T14:44:56.529Z,70.00
2022-12-29T14:47:32.367Z,69.80
2022-12-29T14:50:06.553Z,70.70
2022-12-29T14:52:33.371Z,70.90
2022-12-29T14:55:18.185Z,70.70
2022-12-29T14:57:52.560Z,70.30
2022-12-29T15:00:20.474Z,70.10
2022-12-29T15:02:54.660Z,70.40
2022-12-29T15:05:32.009Z,70.40
2022-12-29T15:07:58.860Z,71.00
2022-12-29T15:10:26.632Z,70.30
2022-12-29T15:12:54.791Z,70.10
2022-12-29T15:15:27.894Z,70.20
2022-12-29T15:17:54.678Z,70.30
2022-12-29T15:20:25.983Z,70.60
2022-12-29T15:22:57.683Z,71.10
2022-12-29T15:25:24.700Z,71.10
2022-12-29T15:28:01.848Z,71.10
2022-12-29T15:30:28.871Z,70.90
2022-12-29T15:32:55.678Z,71.00
2022-12-29T15:35:36.436Z,71.00
2022-12-29T15:38:15.018Z,71.00
2022-12-29T15:40:41.822Z,71.00
2022-12-29T15:43:23.905Z,71.10
2022-12-29T15:45:51.074Z,71.30
2022-12-29T15:48:20.316Z,71.40
2022-12-29T15:50:47.096Z,71.50
2022-12-29T15:53:19.370Z,71.60
2022-12-29T15:55:48.612Z,71.80
2022-12-29T15:58:30.731Z,72.00
2022-12-29T16:00:59.369Z,71.90
2022-12-29T16:03:27.423Z,72.00
2022-12-29T16:06:07.932Z,72.10
2022-12-29T16:08:39.309Z,72.00
2022-12-29T16:11:29.555Z,72.20
2022-12-29T16:13:56.398Z,72.20
2022-12-29T16:16:35.419Z,72.40
2022-12-29T16:19:04.976Z,72.40
2022-12-29T16:21:35.170Z,72.30
2022-12-29T16:24:05.406Z,72.30
2022-12-29T16:26:32.147Z,72.30
2022-12-29T16:29:00.624Z,72.10
2022-12-29T16:31:35.292Z,72.10
2022-12-29T16:34:25.125Z,71.80
2022-12-29T16:36:55.976Z,71.80
2022-12-29T16:39:27.524Z,71.90
2022-12-29T16:41:57.886Z,72.10
2022-12-29T16:44:28.019Z,72.10
2022-12-29T16:47:03.914Z,71.90
2022-12-29T16:49:32.278Z,72.00
2022-12-29T16:51:59.094Z,71.70
2022-12-29T16:54:45.600Z,71.50
2022-12-29T16:57:12.482Z,71.70
2022-12-29T16:59:40.812Z,71.70
2022-12-29T17:02:15.709Z,71.50
2022-12-29T17:04:42.639Z,71.50
2022-12-29T17:07:20.066Z,71.70
2022-12-29T17:09:46.822Z,71.70
2022-12-29T17:12:16.766Z,71.80
2022-12-29T17:14:52.170Z,71.90
2022-12-29T17:17:21.791Z,71.60
2022-12-29T17:19:50.650Z,71.60
2022-12-29T17:22:27.770Z,71.40
2022-12-29T17:24:55.276Z,71.60
2022-12-29T17:27:44.648Z,71.80
2022-12-29T17:30:16.114Z,71.40
2022-12-29T17:32:43.743Z,71.60
2022-12-29T17:35:17.229Z,71.80
2022-12-29T17:37:44.052Z,71.90
2022-12-29T17:40:16.449Z,71.70
2022-12-29T17:42:47.637Z,71.60
2022-12-29T17:45:16.340Z,71.30
2022-12-29T17:47:43.097Z,71.70
2022-12-29T17:50:18.329Z,71.80
2022-12-29T17:52:48.393Z,71.40
2022-12-29T17:55:16.845Z,70.90
2022-12-29T17:57:44.055Z,71.00
2022-12-29T18:00:17.325Z,71.10
2022-12-29T18:02:44.343Z,71.10
2022-12-29T18:05:30.520Z,71.00
2022-12-29T18:07:59.400Z,70.90
2022-12-29T18:10:27.553Z,70.70
2022-12-29T18:12:55.220Z,70.50
2022-12-29T18:15:34.748Z,70.50
2022-12-29T18:18:03.568Z,71.00
2022-12-29T18:20:33.355Z,71.20
2022-12-29T18:23:00.133Z,71.40
2022-12-29T18:25:33.893Z,71.60
2022-12-29T18:28:00.871Z,71.50
2022-12-29T18:30:27.629Z,71.50
2022-12-29T18:32:54.573Z,71.30
2022-12-29T18:35:36.807Z,71.00
2022-12-29T18:38:03.625Z,71.00
2022-12-29T18:40:30.328Z,71.20
2022-12-29T18:42:57.144Z,70.80
2022-12-29T18:45:24.834Z,70.80
2022-12-29T18:47:51.597Z,70.80
2022-12-29T18:50:18.465Z,70.60
2022-12-29T18:52:45.709Z,70.60
2022-12-29T18:55:16.999Z,70.60
2022-12-29T18:57:43.823Z,70.60
2022-12-29T19:00:11.410Z,70.80
2022-12-29T19:02:38.409Z,70.80
2022-12-29T19:05:14.175Z,70.80
2022-12-29T19:07:41.080Z,71.00
2022-12-29T19:10:08.070Z,71.10
2022-12-29T19:12:34.837Z,70.90
2022-12-29T19:15:02.352Z,70.70
2022-12-29T19:17:29.119Z,70.70
2022-12-29T19:19:55.865Z,70.80
2022-12-29T19:22:22.610Z,70.70
2022-12-29T19:24:50.879Z,70.50
2022-12-29T19:27:20.379Z,70.60
2022-12-29T19:29:47.185Z,71.00
2022-12-29T19:32:14.321Z,70.60
2022-12-29T19:34:41.084Z,70.70
2022-12-29T19:37:07.919Z,71.00
2022-12-29T19:39:34.631Z,71.00
2022-12-29T19:42:05.350Z,71.20
2022-12-29T19:44:32.428Z,70.90
2022-12-29T19:46:59.301Z,70.80
2022-12-29T19:49:26.099Z,70.50
2022-12-29T19:51:52.823Z,70.40
2022-12-29T19:54:19.576Z,70.60
2022-12-29T19:56:46.323Z,70.80
2022-12-29T19:59:13.275Z,71.40
2022-12-29T20:01:40.099Z,71.70
2022-12-29T20:04:07.079Z,71.40
2022-12-29T20:06:33.862Z,71.40
2022-12-29T20:09:02.579Z,71.00
2022-12-29T20:11:29.425Z,70.90
2022-12-29T20:13:56.164Z,71.10
2022-12-29T20:16:22.975Z,71.40
2022-12-29T20:18:49.778Z,71.30
2022-12-29T20:21:18.403Z,70.90
2022-12-29T20:23:45.408Z,71.00
2022-12-29T20:26:23.061Z,70.50
2022-12-29T20:28:49.997Z,71.30
2022-12-29T20:31:18.625Z,71.40
2022-12-29T20:33:45.613Z,71.10
2022-12-29T20:36:17.555Z,71.90
2022-12-29T20:38:44.580Z,70.90
2022-12-29T20:41:15.630Z,70.50
2022-12-29T20:43:42.605Z,70.70
2022-12-29T20:46:09.605Z,71.10
2022-12-29T20:48:36.469Z,71.60
2022-12-29T20:51:03.501Z,71.90
2022-12-29T20:53:31.313Z,71.80
2022-12-29T20:56:06.064Z,71.90
2022-12-29T20:58:33.026Z,71.50
2022-12-29T21:01:04.692Z,71.30
2022-12-29T21:03:31.642Z,72.00
2022-12-29T21:06:00.136Z,71.10
2022-12-29T21:08:27.746Z,70.90
2022-12-29T21:10:54.558Z,70.70
2022-12-29T21:13:21.375Z,70.90
2022-12-29T21:15:48.233Z,71.20
2022-12-29T21:18:15.040Z,70.80
2022-12-29T21:20:41.778Z,70.70
2022-12-29T21:23:09.500Z,70.40
2022-12-29T21:25:38.923Z,70.70
2022-12-29T21:28:10.159Z,70.80
2022-12-29T21:30:37.236Z,70.70
2022-12-29T21:33:04.725Z,70.40
2022-12-29T21:35:34.688Z,70.50
2022-12-29T21:38:01.529Z,70.40
2022-12-29T21:40:28.320Z,70.20
2022-12-29T21:42:55.124Z,70.40
2022-12-29T21:45:28.711Z,70.00
2022-12-29T21:48:18.067Z,70.50
2022-12-29T21:51:26.964Z,70.80
2022-12-29T21:54:18.887Z,70.60
2022-12-29T21:56:46.580Z,70.40
2022-12-29T21:59:32.649Z,70.50
2022-12-29T22:02:18.234Z,70.50
2022-12-29T22:05:03.869Z,70.00
2022-12-29T22:07:49.029Z,69.90
2022-12-29T22:10:34.263Z,70.60
2022-12-29T22:13:01.218Z,71.70
2022-12-29T22:15:29.767Z,70.60
2022-12-29T22:17:56.646Z,71.10
2022-12-29T22:20:25.582Z,70.70
2022-12-29T22:22:52.592Z,70.70
2022-12-29T22:25:20.500Z,70.40
2022-12-29T22:27:47.264Z,70.40
2022-12-29T22:30:14.253Z,70.60
2022-12-29T22:32:41.179Z,70.20
2022-12-29T22:35:08.673Z,70.40
2022-12-29T22:37:35.904Z,70.30
2022-12-29T22:40:02.724Z,70.50
2022-12-29T22:42:29.449Z,70.40
2022-12-29T22:44:56.219Z,70.50
2022-12-29T22:47:23.063Z,70.70
2022-12-29T22:49:50.233Z,70.60
2022-12-29T22:52:17.045Z,70.50
2022-12-29T22:54:43.813Z,70.30
2022-12-29T22:57:10.567Z,70.00
2022-12-29T22:59:37.462Z,70.30
2022-12-29T23:02:04.346Z,70.60
2022-12-29T23:07:18.029Z,71.20
2022-12-29T23:09:44.821Z,72.10
2022-12-29T23:12:11.527Z,71.20
2022-12-29T23:14:38.229Z,71.00
2022-12-29T23:17:04.981Z,70.80
2022-12-29T23:19:31.689Z,70.70
2022-12-29T23:21:58.449Z,70.70
2022-12-29T23:24:25.330Z,71.00
2022-12-29T23:26:52.069Z,71.90
2022-12-29T23:29:21.949Z,70.90
2022-12-29T23:31:48.913Z,70.80
2022-12-29T23:34:16.067Z,71.00
2022-12-29T23:36:42.840Z,70.90
2022-12-29T23:39:21.407Z,71.10
2022-12-29T23:41:48.200Z,70.90
2022-12-29T23:44:15.025Z,71.70
2022-12-29T23:46:41.915Z,71.60
2022-12-29T23:49:09.460Z,71.30
2022-12-29T23:51:36.294Z,71.30
2022-12-29T23:54:03.193Z,71.10
2022-12-29T23:56:29.930Z,71.10
2022-12-29T23:58:56.677Z,71.10
